createdAt,value
2022-10-18T00:00:21.515Z,99.90
2022-10-18T00:02:48.614Z,99.90
2022-10-18T00:05:16.108Z,99.90
2022-10-18T00:07:43.212Z,99.90
2022-10-18T00:10:10.811Z,99.90
2022-10-18T00:12:38.650Z,99.90
2022-10-18T00:15:07.512Z,99.90
2022-10-18T00:17:35.923Z,99.90
2022-10-18T00:20:03.482Z,99.90
2022-10-18T00:22:30.758Z,1.00
2022-10-18T00:24:58.168Z,1.00
2022-10-18T00:27:25.344Z,1.00
2022-10-18T00:29:53.664Z,1.00
2022-10-18T00:32:20.929Z,1.00
2022-10-18T00:34:48.340Z,1.00
2022-10-18T00:37:15.751Z,1.00
2022-10-18T00:39:43.091Z,1.00
2022-10-18T00:42:17.874Z,99.90
2022-10-18T00:44:44.938Z,1.00
2022-10-18T00:47:14.219Z,99.90
2022-10-18T00:49:44.599Z,27.00
2022-10-18T00:52:24.327Z,1.00
2022-10-18T00:54:53.068Z,1.00
2022-10-18T00:57:20.636Z,1.00
2022-10-18T00:59:48.175Z,8.90
2022-10-18T01:02:18.276Z,99.90
2022-10-18T01:04:47.043Z,99.90
2022-10-18T01:07:40.126Z,99.90
2022-10-18T01:10:22.154Z,99.90
2022-10-18T01:13:01.230Z,99.90
2022-10-18T01:15:33.615Z,99.90
2022-10-18T01:18:14.894Z,99.90
2022-10-18T01:21:03.075Z,99.90
2022-10-18T01:23:39.239Z,99.90
2022-10-18T01:26:06.310Z,1.00
2022-10-18T01:29:18.390Z,1.00
2022-10-18T01:31:56.449Z,1.00
2022-10-18T01:34:30.242Z,1.00
2022-10-18T01:36:59.074Z,1.00
2022-10-18T01:39:36.671Z,1.00
2022-10-18T01:42:08.897Z,1.00
2022-10-18T01:44:38.323Z,1.00
2022-10-18T01:47:07.881Z,1.00
2022-10-18T01:49:35.212Z,1.00
2022-10-18T01:52:02.545Z,1.00
2022-10-18T01:54:42.270Z,1.00
2022-10-18T01:57:23.411Z,1.00
2022-10-18T02:00:13.122Z,1.00
2022-10-18T02:03:06.842Z,1.00
2022-10-18T02:05:43.078Z,1.00
2022-10-18T02:08:31.390Z,1.00
2022-10-18T02:11:07.927Z,1.00
2022-10-18T02:13:43.886Z,1.00
2022-10-18T02:16:25.987Z,1.00
2022-10-18T02:19:02.107Z,1.00
2022-10-18T02:21:30.523Z,1.00
2022-10-18T02:24:00.765Z,1.00
2022-10-18T02:26:28.111Z,1.00
2022-10-18T02:28:55.444Z,1.00
2022-10-18T02:31:31.021Z,1.00
2022-10-18T02:34:09.686Z,1.00
2022-10-18T02:36:58.887Z,1.00
2022-10-18T02:39:30.823Z,1.00
2022-10-18T02:41:58.518Z,1.00
2022-10-18T02:44:26.095Z,1.00
2022-10-18T02:46:53.517Z,1.00
2022-10-18T02:49:20.635Z,1.00
2022-10-18T02:51:47.704Z,1.00
2022-10-18T02:54:14.797Z,1.00
2022-10-18T02:56:41.924Z,1.00
2022-10-18T02:59:09.133Z,1.00
2022-10-18T03:01:36.587Z,1.00
2022-10-18T03:04:04.672Z,1.00
2022-10-18T03:06:33.044Z,1.00
2022-10-18T03:09:03.415Z,1.00
2022-10-18T03:11:30.538Z,1.00
2022-10-18T03:13:57.787Z,1.00
2022-10-18T03:16:25.156Z,1.00
2022-10-18T03:18:52.255Z,1.00
2022-10-18T03:21:19.451Z,1.00
2022-10-18T03:23:46.549Z,1.00
2022-10-18T03:26:13.647Z,1.00
2022-10-18T03:28:40.770Z,1.00
2022-10-18T03:31:08.026Z,1.00
2022-10-18T03:33:35.158Z,1.00
2022-10-18T03:36:02.282Z,1.00
2022-10-18T03:38:29.366Z,1.00
2022-10-18T03:40:56.546Z,1.00
2022-10-18T03:43:23.710Z,1.00
2022-10-18T03:45:52.388Z,1.00
2022-10-18T03:48:19.563Z,1.00
2022-10-18T03:50:46.714Z,1.00
2022-10-18T03:53:13.978Z,1.00
2022-10-18T03:55:41.458Z,1.00
2022-10-18T03:58:09.075Z,1.00
2022-10-18T04:00:36.224Z,1.00
2022-10-18T04:03:03.638Z,1.00
2022-10-18T04:05:31.155Z,1.00
2022-10-18T04:07:58.727Z,1.00
2022-10-18T04:10:26.427Z,1.00
2022-10-18T04:12:53.734Z,1.00
2022-10-18T04:15:20.987Z,1.00
2022-10-18T04:17:48.100Z,1.00
2022-10-18T04:20:15.336Z,1.00
2022-10-18T04:22:42.455Z,1.00
2022-10-18T04:25:09.711Z,1.00
2022-10-18T04:27:37.438Z,1.00
2022-10-18T04:30:05.078Z,1.00
2022-10-18T04:32:32.207Z,1.00
2022-10-18T04:34:59.360Z,1.00
2022-10-18T04:37:26.520Z,1.00
2022-10-18T04:39:53.935Z,1.00
2022-10-18T04:42:22.130Z,1.00
2022-10-18T04:44:49.401Z,1.00
2022-10-18T04:47:17.363Z,1.00
2022-10-18T04:49:44.695Z,1.00
2022-10-18T04:52:11.989Z,1.00
2022-10-18T04:54:39.177Z,1.00
2022-10-18T04:57:06.312Z,1.00
2022-10-18T04:59:33.460Z,1.00
2022-10-18T05:02:00.691Z,1.00
2022-10-18T05:04:27.867Z,1.00
2022-10-18T05:06:55.018Z,1.00
2022-10-18T05:09:24.647Z,1.00
2022-10-18T05:11:51.938Z,1.00
2022-10-18T05:14:19.149Z,1.00
2022-10-18T05:16:46.327Z,1.00
2022-10-18T05:19:13.473Z,1.00
2022-10-18T05:21:40.668Z,1.00
2022-10-18T05:24:07.856Z,1.00
2022-10-18T05:26:35.000Z,1.00
2022-10-18T05:29:02.550Z,1.00
2022-10-18T05:31:29.822Z,1.00
2022-10-18T05:33:56.954Z,1.00
2022-10-18T05:36:26.074Z,1.00
2022-10-18T05:38:53.691Z,1.00
2022-10-18T05:41:21.142Z,1.00
2022-10-18T05:43:48.378Z,1.00
2022-10-18T05:46:15.945Z,1.00
2022-10-18T05:48:44.676Z,1.00
2022-10-18T05:51:11.945Z,1.00
2022-10-18T05:53:39.114Z,1.00
2022-10-18T05:56:07.433Z,1.00
2022-10-18T05:58:35.205Z,1.00
2022-10-18T06:01:04.288Z,1.00
2022-10-18T06:03:31.746Z,1.80
2022-10-18T06:06:07.946Z,8.20
2022-10-18T06:08:35.907Z,9.10
2022-10-18T06:11:21.519Z,9.40
2022-10-18T06:13:50.611Z,12.10
2022-10-18T06:16:20.320Z,14.80
2022-10-18T06:18:52.573Z,18.50
2022-10-18T06:21:20.799Z,21.00
2022-10-18T06:23:52.744Z,21.80
2022-10-18T06:26:20.845Z,22.30
2022-10-18T06:28:48.030Z,23.60
2022-10-18T06:31:15.469Z,24.40
2022-10-18T06:33:42.823Z,25.30
2022-10-18T06:36:17.134Z,26.40
2022-10-18T06:38:44.550Z,27.10
2022-10-18T06:41:12.000Z,28.10
2022-10-18T06:43:39.179Z,28.90
2022-10-18T06:46:08.296Z,29.60
2022-10-18T06:48:36.592Z,30.50
2022-10-18T06:51:05.937Z,31.50
2022-10-18T06:53:44.066Z,32.60
2022-10-18T06:56:20.600Z,33.50
2022-10-18T06:58:47.747Z,34.30
2022-10-18T07:01:17.029Z,35.10
2022-10-18T07:03:45.253Z,35.50
2022-10-18T07:06:13.814Z,35.70
2022-10-18T07:08:41.308Z,36.10
2022-10-18T07:11:10.926Z,36.60
2022-10-18T07:13:38.028Z,36.70
2022-10-18T07:16:08.629Z,38.00
2022-10-18T07:18:39.180Z,39.20
2022-10-18T07:21:08.909Z,41.40
2022-10-18T07:23:37.811Z,43.50
2022-10-18T07:26:16.565Z,46.00
2022-10-18T07:28:46.054Z,48.40
2022-10-18T07:31:13.939Z,51.50
2022-10-18T07:33:43.013Z,54.90
2022-10-18T07:36:11.994Z,58.30
2022-10-18T07:38:39.404Z,63.10
2022-10-18T07:41:08.301Z,68.90
2022-10-18T07:43:36.080Z,76.30
2022-10-18T07:46:04.847Z,85.30
2022-10-18T07:48:32.401Z,91.80
2022-10-18T07:51:00.789Z,97.30
2022-10-18T07:53:28.867Z,99.90
2022-10-18T07:56:07.123Z,99.90
2022-10-18T07:58:36.567Z,99.90
2022-10-18T08:01:05.825Z,99.90
2022-10-18T08:03:33.157Z,37.80
2022-10-18T08:06:00.627Z,1.00
2022-10-18T08:08:28.985Z,1.00
2022-10-18T08:11:01.476Z,99.90
2022-10-18T08:13:29.083Z,99.90
2022-10-18T08:16:12.243Z,29.30
2022-10-18T08:18:40.363Z,53.10
2022-10-18T08:21:09.597Z,99.90
2022-10-18T08:23:37.429Z,1.00
2022-10-18T08:26:10.131Z,99.90
2022-10-18T08:28:37.732Z,1.00
2022-10-18T08:31:11.379Z,1.00
2022-10-18T08:33:39.800Z,1.00
2022-10-18T08:36:10.163Z,99.90
2022-10-18T08:38:39.271Z,99.90
2022-10-18T08:41:39.435Z,99.90
2022-10-18T08:44:23.311Z,99.90
2022-10-18T08:47:14.964Z,99.90
2022-10-18T08:49:54.994Z,99.90
2022-10-18T08:52:31.046Z,99.90
2022-10-18T08:55:21.483Z,99.90
2022-10-18T08:57:50.903Z,99.90
2022-10-18T09:00:21.526Z,99.90
2022-10-18T09:03:13.358Z,99.90
2022-10-18T09:05:51.801Z,99.90
2022-10-18T09:08:38.857Z,99.90
2022-10-18T09:11:14.889Z,99.90
2022-10-18T09:14:16.139Z,99.90
2022-10-18T09:16:50.693Z,97.90
2022-10-18T09:19:43.284Z,94.70
2022-10-18T09:22:19.076Z,92.20
2022-10-18T09:24:50.627Z,88.50
2022-10-18T09:27:19.711Z,85.40
2022-10-18T09:30:15.248Z,81.40
2022-10-18T09:33:17.646Z,81.60
2022-10-18T09:35:54.423Z,78.80
2022-10-18T09:41:02.339Z,77.80
2022-10-18T09:43:58.923Z,74.40
2022-10-18T09:46:31.400Z,72.10
2022-10-18T09:49:03.124Z,73.60
2022-10-18T09:51:35.479Z,71.60
2022-10-18T09:54:14.417Z,72.30
2022-10-18T09:56:47.629Z,71.10
2022-10-18T09:59:33.949Z,72.10
2022-10-18T10:02:01.134Z,71.00
2022-10-18T10:04:28.699Z,68.90
2022-10-18T10:06:59.138Z,67.70
2022-10-18T10:09:36.609Z,65.20
2022-10-18T10:12:03.915Z,63.30
2022-10-18T10:14:42.605Z,62.30
2022-10-18T10:17:26.283Z,61.40
2022-10-18T10:20:14.353Z,59.00
2022-10-18T10:22:42.914Z,82.90
2022-10-18T10:25:23.355Z,60.80
2022-10-18T10:27:50.948Z,58.30
2022-10-18T10:30:24.255Z,58.10
2022-10-18T10:32:52.526Z,55.70
2022-10-18T10:38:27.195Z,57.00
2022-10-18T10:40:55.228Z,55.90
2022-10-18T10:43:38.750Z,55.00
2022-10-18T10:46:19.253Z,54.40
2022-10-18T10:49:09.645Z,55.10
2022-10-18T10:51:42.152Z,53.10
2022-10-18T10:54:22.081Z,55.00
2022-10-18T10:57:00.315Z,54.60
2022-10-18T11:02:26.147Z,52.40
2022-10-18T11:04:55.499Z,51.90
2022-10-18T11:07:43.431Z,53.50
2022-10-18T11:10:10.511Z,51.80
2022-10-18T11:12:48.239Z,52.70
2022-10-18T11:15:28.731Z,51.70
2022-10-18T11:17:55.862Z,51.50
2022-10-18T11:20:35.230Z,51.30
2022-10-18T11:23:12.524Z,47.80
2022-10-18T11:25:51.499Z,49.40
2022-10-18T11:28:36.796Z,47.00
2022-10-18T11:31:25.819Z,48.60
2022-10-18T11:34:10.961Z,47.20
2022-10-18T11:36:56.109Z,48.30
2022-10-18T11:39:39.239Z,46.60
2022-10-18T11:42:29.952Z,48.60
2022-10-18T11:45:18.150Z,47.10
2022-10-18T11:48:04.058Z,47.40
2022-10-18T11:50:46.045Z,45.70
2022-10-18T11:53:22.111Z,46.20
2022-10-18T11:56:07.110Z,46.60
2022-10-18T11:58:48.872Z,44.90
2022-10-18T12:01:43.983Z,47.10
2022-10-18T12:04:20.938Z,45.80
2022-10-18T12:06:51.210Z,47.40
2022-10-18T12:09:36.382Z,45.10
2022-10-18T12:12:16.540Z,44.60
2022-10-18T12:14:50.167Z,44.20
2022-10-18T12:17:43.968Z,46.50
2022-10-18T12:20:31.959Z,47.80
2022-10-18T12:23:18.211Z,43.70
2022-10-18T12:25:59.362Z,47.10
2022-10-18T12:29:07.791Z,46.30
2022-10-18T12:31:44.912Z,44.10
2022-10-18T12:34:43.764Z,43.70
2022-10-18T12:37:48.636Z,43.30
2022-10-18T12:40:23.605Z,43.70
2022-10-18T12:42:53.144Z,45.50
2022-10-18T12:45:23.314Z,45.30
2022-10-18T12:47:50.788Z,43.10
2022-10-18T12:50:39.719Z,44.40
2022-10-18T12:53:27.899Z,41.80
2022-10-18T12:55:56.088Z,44.90
2022-10-18T12:58:31.983Z,44.00
2022-10-18T13:01:02.351Z,44.40
2022-10-18T13:03:55.461Z,42.80
2022-10-18T13:06:23.773Z,41.30
2022-10-18T13:09:17.407Z,43.00
2022-10-18T13:11:44.602Z,41.70
2022-10-18T13:15:12.684Z,59.20
2022-10-18T13:17:55.799Z,39.90
2022-10-18T13:20:44.100Z,41.50
2022-10-18T13:23:38.146Z,40.50
2022-10-18T13:26:39.094Z,41.60
2022-10-18T13:29:56.117Z,39.50
2022-10-18T13:32:39.619Z,37.60
2022-10-18T13:35:45.429Z,38.50
2022-10-18T13:38:40.773Z,37.40
2022-10-18T13:41:20.261Z,37.80
2022-10-18T13:43:53.493Z,39.00
2022-10-18T13:46:32.786Z,38.30
2022-10-18T13:49:01.155Z,38.10
2022-10-18T13:51:46.131Z,38.20
2022-10-18T13:54:47.448Z,37.40
2022-10-18T13:57:38.732Z,35.90
2022-10-18T14:00:08.703Z,37.70
2022-10-18T14:02:59.620Z,36.90
2022-10-18T14:05:42.499Z,36.20
2022-10-18T14:08:28.936Z,38.20
2022-10-18T14:11:14.114Z,35.20
2022-10-18T14:13:48.254Z,34.70
2022-10-18T14:16:28.370Z,37.20
2022-10-18T14:19:08.579Z,35.40
2022-10-18T14:21:40.370Z,36.80
2022-10-18T14:24:21.628Z,36.70
2022-10-18T14:27:08.701Z,34.50
2022-10-18T14:29:35.930Z,36.50
2022-10-18T14:32:03.052Z,35.10
2022-10-18T14:34:30.870Z,36.70
2022-10-18T14:36:58.031Z,36.30
2022-10-18T14:39:30.794Z,35.30
2022-10-18T14:41:58.608Z,36.60
2022-10-18T14:44:28.362Z,35.60
2022-10-18T14:47:13.941Z,35.70
2022-10-18T14:49:45.694Z,36.60
2022-10-18T14:52:21.156Z,34.70
2022-10-18T14:54:50.231Z,34.90
2022-10-18T14:57:23.499Z,34.00
2022-10-18T14:59:58.259Z,34.20
2022-10-18T15:02:27.922Z,37.00
2022-10-18T15:05:08.079Z,32.90
2022-10-18T15:07:35.949Z,31.10
2022-10-18T15:10:06.334Z,33.10
2022-10-18T15:12:40.982Z,34.00
2022-10-18T15:15:21.597Z,32.70
2022-10-18T15:17:50.093Z,32.60
2022-10-18T15:20:25.004Z,34.10
2022-10-18T15:22:53.199Z,50.20
2022-10-18T15:25:35.906Z,34.50
2022-10-18T15:28:03.135Z,34.30
2022-10-18T15:30:36.299Z,34.70
2022-10-18T15:33:05.311Z,34.90
2022-10-18T15:35:34.715Z,36.80
2022-10-18T15:38:31.903Z,35.80
2022-10-18T15:40:59.411Z,32.10
2022-10-18T15:43:26.507Z,34.20
2022-10-18T15:46:01.840Z,34.00
2022-10-18T15:48:37.169Z,34.50
2022-10-18T15:51:07.120Z,36.00
2022-10-18T15:53:52.262Z,35.80
2022-10-18T15:56:25.231Z,33.80
2022-10-18T15:58:52.487Z,35.90
2022-10-18T16:01:57.614Z,37.80
2022-10-18T16:04:27.784Z,35.80
2022-10-18T16:06:56.080Z,39.20
2022-10-18T16:09:27.072Z,39.90
2022-10-18T16:11:57.209Z,41.50
2022-10-18T16:14:26.008Z,44.10
2022-10-18T16:17:00.655Z,45.50
2022-10-18T16:19:27.898Z,47.60
2022-10-18T16:21:55.241Z,48.30
2022-10-18T16:24:23.597Z,51.30
2022-10-18T16:26:51.032Z,53.10
2022-10-18T16:29:24.357Z,54.60
2022-10-18T16:31:53.565Z,56.50
2022-10-18T16:34:20.829Z,61.00
2022-10-18T16:36:47.986Z,61.90
2022-10-18T16:39:18.251Z,61.90
2022-10-18T16:41:46.451Z,76.40
2022-10-18T16:44:14.270Z,72.10
2022-10-18T16:46:42.022Z,71.40
2022-10-18T16:49:23.828Z,74.60
2022-10-18T16:51:55.235Z,76.20
2022-10-18T16:54:23.516Z,78.00
2022-10-18T16:56:51.186Z,79.60
2022-10-18T16:59:30.400Z,84.40
2022-10-18T17:01:57.747Z,89.50
2022-10-18T17:04:25.023Z,91.00
2022-10-18T17:06:54.363Z,93.00
2022-10-18T17:09:21.727Z,94.10
2022-10-18T17:11:49.634Z,95.20
2022-10-18T17:14:16.730Z,95.80
2022-10-18T17:16:46.700Z,96.40
2022-10-18T17:19:17.860Z,96.50
2022-10-18T17:21:44.973Z,97.50
2022-10-18T17:24:12.327Z,98.90
2022-10-18T17:26:39.491Z,99.90
2022-10-18T17:29:08.428Z,99.90
2022-10-18T17:31:35.922Z,99.90
2022-10-18T17:34:03.759Z,99.90
2022-10-18T17:36:32.543Z,99.90
2022-10-18T17:38:59.694Z,99.90
2022-10-18T17:41:27.294Z,99.90
2022-10-18T17:43:54.613Z,99.90
2022-10-18T17:46:23.667Z,99.90
2022-10-18T17:48:50.865Z,99.90
2022-10-18T17:51:18.613Z,99.90
2022-10-18T17:53:46.102Z,99.90
2022-10-18T17:56:13.930Z,99.90
2022-10-18T17:58:43.538Z,99.90
2022-10-18T18:01:15.193Z,99.90
2022-10-18T18:03:42.349Z,99.90
2022-10-18T18:06:18.497Z,99.90
2022-10-18T18:08:46.273Z,99.90
2022-10-18T18:11:13.973Z,99.90
2022-10-18T18:13:41.395Z,99.90
2022-10-18T18:16:17.696Z,99.90
2022-10-18T18:18:45.729Z,99.90
2022-10-18T18:21:13.325Z,99.90
2022-10-18T18:23:40.726Z,99.90
2022-10-18T18:26:07.923Z,99.90
2022-10-18T18:28:36.341Z,99.90
2022-10-18T18:31:11.965Z,99.90
2022-10-18T18:33:39.237Z,99.90
2022-10-18T18:36:07.009Z,99.90
2022-10-18T18:38:36.456Z,99.90
2022-10-18T18:41:18.495Z,99.90
2022-10-18T18:43:50.205Z,99.90
2022-10-18T18:46:17.351Z,99.90
2022-10-18T18:48:44.560Z,99.90
2022-10-18T18:51:18.060Z,99.90
2022-10-18T18:53:46.502Z,99.90
2022-10-18T18:56:25.161Z,99.90
2022-10-18T18:58:53.585Z,99.90
2022-10-18T19:01:23.402Z,99.90
2022-10-18T19:03:53.475Z,99.90
2022-10-18T19:06:27.175Z,99.90
2022-10-18T19:09:00.259Z,99.90
2022-10-18T19:11:29.385Z,99.90
2022-10-18T19:13:56.767Z,99.90
2022-10-18T19:16:29.803Z,99.90
2022-10-18T19:19:01.227Z,99.90
2022-10-18T19:21:31.328Z,99.90
2022-10-18T19:23:59.589Z,99.90
2022-10-18T19:26:32.350Z,99.90
2022-10-18T19:29:14.615Z,99.90
2022-10-18T19:31:42.848Z,99.90
2022-10-18T19:34:12.228Z,99.90
2022-10-18T19:36:40.631Z,99.90
2022-10-18T19:39:09.943Z,99.90
2022-10-18T19:41:37.191Z,99.90
2022-10-18T19:44:04.505Z,99.90
2022-10-18T19:46:31.686Z,99.90
2022-10-18T19:48:58.949Z,99.90
2022-10-18T19:51:28.375Z,99.90
2022-10-18T19:53:57.223Z,99.90
2022-10-18T19:56:26.967Z,99.90
2022-10-18T19:58:55.467Z,99.90
2022-10-18T20:01:22.828Z,99.90
2022-10-18T20:03:50.072Z,99.90
2022-10-18T20:06:17.420Z,99.90
2022-10-18T20:08:44.658Z,99.90
2022-10-18T20:11:14.595Z,99.90
2022-10-18T20:13:41.975Z,99.90
2022-10-18T20:16:11.175Z,1.00
2022-10-18T20:18:38.611Z,1.00
2022-10-18T20:21:10.907Z,1.00
2022-10-18T20:23:39.911Z,1.00
2022-10-18T20:26:20.448Z,1.00
2022-10-18T20:28:55.733Z,1.00
2022-10-18T20:31:25.938Z,1.00
2022-10-18T20:34:01.454Z,1.00
2022-10-18T20:36:31.015Z,1.00
2022-10-18T20:38:58.707Z,1.00
2022-10-18T20:41:31.495Z,1.00
2022-10-18T20:44:00.943Z,1.00
2022-10-18T20:46:31.794Z,1.00
2022-10-18T20:48:59.163Z,1.00
2022-10-18T20:51:26.532Z,1.00
2022-10-18T20:53:53.837Z,1.00
2022-10-18T20:56:25.241Z,1.00
2022-10-18T20:58:55.747Z,1.00
2022-10-18T21:01:30.200Z,1.00
2022-10-18T21:04:00.407Z,1.00
2022-10-18T21:06:32.900Z,1.00
2022-10-18T21:09:20.272Z,99.90
2022-10-18T21:11:50.130Z,99.90
2022-10-18T21:14:19.592Z,99.90
2022-10-18T21:16:47.827Z,1.00
2022-10-18T21:19:26.394Z,1.00
2022-10-18T21:21:57.769Z,1.00
2022-10-18T21:24:26.134Z,1.00
2022-10-18T21:26:54.560Z,1.00
2022-10-18T21:29:22.911Z,1.00
2022-10-18T21:31:54.094Z,1.00
2022-10-18T21:34:21.550Z,1.00
2022-10-18T21:36:48.671Z,1.00
2022-10-18T21:39:19.159Z,1.00
2022-10-18T21:41:46.535Z,1.00
2022-10-18T21:44:14.443Z,1.00
2022-10-18T21:46:43.117Z,1.00
2022-10-18T21:49:10.983Z,1.00
2022-10-18T21:51:39.187Z,1.00
2022-10-18T21:54:10.796Z,1.00
2022-10-18T21:56:38.133Z,1.00
2022-10-18T21:59:05.695Z,1.00
2022-10-18T22:01:36.228Z,1.00
2022-10-18T22:04:06.144Z,1.00
2022-10-18T22:09:08.439Z,1.00
2022-10-18T22:11:41.430Z,1.00
2022-10-18T22:14:08.643Z,1.00
2022-10-18T22:16:35.892Z,1.00
2022-10-18T22:19:05.024Z,1.00
2022-10-18T22:21:32.541Z,13.60
2022-10-18T22:24:03.207Z,99.90
2022-10-18T22:26:36.026Z,99.90
2022-10-18T22:29:11.768Z,88.00
2022-10-18T22:31:42.014Z,4.30
2022-10-18T22:34:13.355Z,1.00
2022-10-18T22:36:40.583Z,1.00
2022-10-18T22:39:08.140Z,1.00
2022-10-18T22:41:35.951Z,99.90
2022-10-18T22:44:04.148Z,99.90
2022-10-18T22:46:32.594Z,99.90
2022-10-18T22:49:00.036Z,99.90
2022-10-18T22:51:27.359Z,99.90
2022-10-18T22:53:54.603Z,1.00
2022-10-18T22:56:23.204Z,1.00
2022-10-18T22:58:50.794Z,1.00
2022-10-18T23:01:21.121Z,1.00
2022-10-18T23:03:53.459Z,1.00
2022-10-18T23:06:28.043Z,99.90
2022-10-18T23:08:57.287Z,99.90
2022-10-18T23:11:25.765Z,99.90
2022-10-18T23:13:53.369Z,99.90
2022-10-18T23:16:20.999Z,99.90
2022-10-18T23:18:52.766Z,99.90
2022-10-18T23:21:21.086Z,99.90
2022-10-18T23:23:48.255Z,99.90
2022-10-18T23:26:18.402Z,99.90
2022-10-18T23:28:47.789Z,99.90
2022-10-18T23:31:30.379Z,99.90
2022-10-18T23:34:01.684Z,99.90
2022-10-18T23:36:29.725Z,99.90
2022-10-18T23:38:57.230Z,99.90
2022-10-18T23:41:24.734Z,99.90
2022-10-18T23:43:52.055Z,99.90
2022-10-18T23:46:19.567Z,99.90
2022-10-18T23:48:47.404Z,99.90
2022-10-18T23:51:15.208Z,99.90
2022-10-18T23:53:42.618Z,99.90
2022-10-18T23:56:12.734Z,99.90
2022-10-18T23:58:40.866Z,99.90
